»·PEaware :: N360BG KBOI-KSLC

N360BG :: KBOI-KSLC

FLIGHT INFORMATION

Flight Status: Arrived
Operator: Privately registered:
United States
More flights under this callsign
Pilot: Brandon G. (13)
Aircraft: BEECH AIRCRAFT A90-E90 KING AIR
(BE9L)
More flights by this aircraft type
Origin: KBOI Boise Air Terminal/Gowen
United States
Destination: KSLC Salt Lake City Intl
United States
More flights between these airports :: More routes between these airports
Route: +BOI ROARR BYI BEARR5
File this flight plan on PilotEdge
Remarks:
Altitude:
(Current/Filed)
19,000ft
Speed:
(Current/Filed)
250kts
Departed: 12-Dec-17 09:47 PM
Arrived: 12-Dec-17 11:05 PM
Distance/Time
Traveled:
252nm/1:18
Distance/Time
To Go:
Arrived

Flight Plot

Page will automatically refresh every two minutes.

Flight plan parsing failed; only flown route is shown


Map Options




Map Legend


Flown Route
Filed Route
Departure Airport
Arrival Airport
Navaid (VOR, NDB)
Fix

Horizontal Profiles

Position Reports

Time Latitude Longitude Heading Altitude Ground
Speed
12-Dec-17 21:31 43.569101 -116.226573 2 2839ft 0kts
12-Dec-17 21:32 43.569101 -116.226573 2 2839ft 0kts
12-Dec-17 21:34 43.569101 -116.226573 2 2839ft 0kts
12-Dec-17 21:34 43.569101 -116.226573 2 2839ft 0kts
12-Dec-17 21:35 43.569101 -116.226573 2 2839ft 0kts
12-Dec-17 21:36 43.569101 -116.226573 2 2839ft 0kts
12-Dec-17 21:37 43.569101 -116.226573 2 2839ft 0kts
12-Dec-17 21:38 43.569101 -116.226573 2 2839ft 0kts
12-Dec-17 21:39 43.569101 -116.226573 2 2839ft 0kts
12-Dec-17 21:40 43.569101 -116.226573 2 2839ft 0kts
12-Dec-17 21:41 43.569101 -116.226573 2 2839ft 0kts
12-Dec-17 21:42 43.569101 -116.226573 2 2839ft 0kts
12-Dec-17 21:43 43.569101 -116.226573 2 2839ft 0kts
12-Dec-17 21:44 43.569101 -116.226573 2 2839ft 0kts
12-Dec-17 21:45 43.569101 -116.226573 2 2839ft 0kts
12-Dec-17 21:46 43.569268 -116.226735 281 2839ft 4kts
12-Dec-17 21:47 43.569391 -116.229392 272 2836ft 0kts
12-Dec-17 21:48 43.569408 -116.229488 282 2836ft 2kts
12-Dec-17 21:49 43.570066 -116.232846 298 2831ft 14kts
12-Dec-17 21:50 43.570875 -116.235764 235 2825ft 0kts
12-Dec-17 21:51 43.570875 -116.235764 235 2825ft 0kts
12-Dec-17 21:52 43.566790 -116.226814 114 2863ft 116kts
12-Dec-17 21:53 43.552472 -116.178775 108 4369ft 142kts
12-Dec-17 21:54 43.536955 -116.123070 107 5954ft 165kts
12-Dec-17 21:55 43.520131 -116.062619 106 7600ft 176kts
12-Dec-17 21:56 43.499474 -115.996640 110 8663ft 193kts
12-Dec-17 21:57 43.479088 -115.934202 110 10308ft 176kts
12-Dec-17 21:58 43.458457 -115.871300 110 11703ft 182kts
12-Dec-17 21:59 43.441716 -115.820129 110 13426ft 171kts
12-Dec-17 22:00 43.421306 -115.758469 110 14664ft 180kts
12-Dec-17 22:01 43.400975 -115.696998 109 16082ft 172kts
12-Dec-17 22:02 43.380996 -115.636637 109 17379ft 175kts
12-Dec-17 22:03 43.360653 -115.575341 109 18549ft 179kts
12-Dec-17 22:04 43.343504 -115.523772 108 19537ft 177kts
12-Dec-17 22:05 43.337525 -115.505730 109 19566ft 195kts
12-Dec-17 22:06 43.316792 -115.443614 110 19563ft 225kts
12-Dec-17 22:07 43.289150 -115.364086 118 19564ft 237kts
12-Dec-17 22:08 43.254577 -115.288579 119 19558ft 240kts
12-Dec-17 22:09 43.218895 -115.211513 119 19559ft 240kts
12-Dec-17 22:10 43.183147 -115.134543 119 19547ft 241kts
12-Dec-17 22:11 43.147211 -115.057379 120 19529ft 241kts
12-Dec-17 22:12 43.111387 -114.980629 121 19503ft 240kts
12-Dec-17 22:14 43.075680 -114.904384 121 19493ft 238kts
12-Dec-17 22:15 43.039928 -114.828212 121 19495ft 238kts
12-Dec-17 22:16 43.004185 -114.752267 120 19497ft 238kts
12-Dec-17 22:17 42.968576 -114.676788 120 19497ft 238kts
12-Dec-17 22:18 42.932816 -114.601157 119 19498ft 237kts
12-Dec-17 22:19 42.904546 -114.541543 119 19499ft 237kts
12-Dec-17 22:20 42.869310 -114.467385 119 19492ft 236kts
12-Dec-17 22:21 42.833683 -114.392577 119 19493ft 235kts
12-Dec-17 22:22 42.798625 -114.319151 119 19491ft 235kts
12-Dec-17 22:23 42.755971 -114.251482 130 19491ft 237kts
12-Dec-17 22:24 42.711536 -114.185479 130 19485ft 237kts
12-Dec-17 22:25 42.667156 -114.119853 130 19473ft 238kts
12-Dec-17 22:26 42.622612 -114.054145 130 19463ft 238kts
12-Dec-17 22:27 42.578050 -113.988557 130 19457ft 238kts
12-Dec-17 22:28 42.533495 -113.923132 130 19457ft 238kts
12-Dec-17 22:29 42.461175 -113.817243 130 19458ft 238kts
12-Dec-17 22:30 42.252315 -113.513603 130 19456ft 238kts
12-Dec-17 22:31 42.183201 -113.413823 130 19460ft 238kts
12-Dec-17 22:32 42.101450 -113.296237 131 19459ft 238kts
12-Dec-17 22:33 42.056087 -113.231222 130 19393ft 224kts
12-Dec-17 22:34 42.008281 -113.162816 131 18120ft 265kts
12-Dec-17 22:35 41.955992 -113.088239 132 16539ft 277kts
12-Dec-17 22:36 41.902680 -113.012366 132 14945ft 277kts
12-Dec-17 22:37 41.850265 -112.937961 133 13106ft 272kts
12-Dec-17 22:38 41.803783 -112.872082 133 12983ft 223kts
12-Dec-17 22:39 41.759011 -112.808812 134 13009ft 238kts
12-Dec-17 22:40 41.712686 -112.743513 134 13009ft 241kts
12-Dec-17 22:41 41.665873 -112.677659 134 13009ft 242kts
12-Dec-17 22:42 41.619000 -112.611868 134 13010ft 242kts
12-Dec-17 22:43 41.572297 -112.546465 134 13010ft 242kts
12-Dec-17 22:44 41.523523 -112.483800 151 13015ft 240kts
12-Dec-17 22:45 41.465259 -112.439016 152 13011ft 240kts
12-Dec-17 22:46 41.406912 -112.395002 152 13006ft 241kts
12-Dec-17 22:47 41.348460 -112.351047 152 12993ft 241kts
12-Dec-17 22:48 41.290819 -112.307794 153 12976ft 240kts
12-Dec-17 22:49 41.232101 -112.263825 153 12972ft 240kts
12-Dec-17 22:50 41.173533 -112.220054 153 12972ft 240kts
12-Dec-17 22:51 41.115052 -112.176445 153 12973ft 240kts
12-Dec-17 22:52 41.053971 -112.144011 174 12980ft 235kts
12-Dec-17 22:53 40.988958 -112.130879 173 12985ft 235kts
12-Dec-17 22:54 40.924158 -112.117752 172 12992ft 234kts
12-Dec-17 22:55 40.859608 -112.104665 172 12479ft 245kts
12-Dec-17 22:56 40.791548 -112.091651 173 11868ft 246kts
12-Dec-17 22:57 40.723048 -112.080433 175 11256ft 246kts
12-Dec-17 22:58 40.656721 -112.071416 176 11007ft 235kts
12-Dec-17 22:59 40.591807 -112.063835 176 11008ft 232kts
12-Dec-17 23:00 40.527161 -112.057295 177 11007ft 231kts
12-Dec-17 23:01 40.465347 -112.051914 178 11006ft 231kts
12-Dec-17 23:02 40.426635 -112.004887 83 11000ft 223kts
12-Dec-17 23:03 40.435658 -111.920063 49 9990ft 235kts
12-Dec-17 23:04 40.490999 -111.934577 326 8935ft 228kts
12-Dec-17 23:05 40.541005 -111.946114 354 8533ft 215kts
12-Dec-17 23:06 40.598431 -111.952727 354 7706ft 222kts
12-Dec-17 23:07 40.660290 -111.959872 354 6515ft 224kts
12-Dec-17 23:08 40.717775 -111.966540 354 5316ft 163kts
12-Dec-17 23:09 40.753740 -111.970705 354 4672ft 108kts
12-Dec-17 23:10 40.780873 -111.973865 355 4222ft 44kts
12-Dec-17 23:11 40.789167 -111.974812 355 4219ft 22kts
12-Dec-17 23:12 40.796907 -111.975351 54 4219ft 26kts
12-Dec-17 23:13 40.797875 -111.967186 103 4219ft 24kts
12-Dec-17 23:14 40.791855 -111.962286 142 4219ft 22kts

Navigation Log

Ident Type
Flight plan parsing failed, navigation log unavailable